sensor_id;sensor_type;location;lat;lon;timestamp;P1;durP1;ratioP1;P2;durP2;ratioP2
48588;SDS011;34369;51.174;6.738;2022-11-21T00:01:11;36.27;;;33.13;;
48588;SDS011;34369;51.174;6.738;2022-11-21T00:03:50;36.97;;;33.87;;
48588;SDS011;34369;51.174;6.738;2022-11-21T00:06:23;36.27;;;32.83;;
48588;SDS011;34369;51.174;6.738;2022-11-21T00:08:57;35.17;;;32.13;;
48588;SDS011;34369;51.174;6.738;2022-11-21T00:11:29;35.77;;;32.50;;
48588;SDS011;34369;51.174;6.738;2022-11-21T00:14:01;35.43;;;32.53;;
48588;SDS011;34369;51.174;6.738;2022-11-21T00:16:33;36.53;;;33.20;;
48588;SDS011;34369;51.174;6.738;2022-11-21T00:19:07;36.77;;;33.60;;
48588;SDS011;34369;51.174;6.738;2022-11-21T00:21:39;36.50;;;33.47;;
48588;SDS011;34369;51.174;6.738;2022-11-21T00:24:13;36.33;;;33.23;;
48588;SDS011;34369;51.174;6.738;2022-11-21T00:26:45;37.00;;;33.57;;
48588;SDS011;34369;51.174;6.738;2022-11-21T00:29:17;36.63;;;33.43;;
48588;SDS011;34369;51.174;6.738;2022-11-21T00:31:49;35.77;;;32.53;;
48588;SDS011;34369;51.174;6.738;2022-11-21T00:34:22;36.03;;;33.03;;
48588;SDS011;34369;51.174;6.738;2022-11-21T00:36:54;37.90;;;34.73;;
48588;SDS011;34369;51.174;6.738;2022-11-21T00:39:29;36.43;;;33.43;;
48588;SDS011;34369;51.174;6.738;2022-11-21T00:42:04;35.50;;;32.88;;
48588;SDS011;34369;51.174;6.738;2022-11-21T00:44:36;35.47;;;32.63;;
48588;SDS011;34369;51.174;6.738;2022-11-21T00:47:09;36.10;;;32.97;;
48588;SDS011;34369;51.174;6.738;2022-11-21T00:49:41;36.60;;;33.43;;
48588;SDS011;34369;51.174;6.738;2022-11-21T00:52:14;35.50;;;32.50;;
48588;SDS011;34369;51.174;6.738;2022-11-21T00:54:48;34.07;;;31.17;;
48588;SDS011;34369;51.174;6.738;2022-11-21T00:57:20;35.00;;;31.90;;
48588;SDS011;34369;51.174;6.738;2022-11-21T00:59:53;34.77;;;31.70;;
48588;SDS011;34369;51.174;6.738;2022-11-21T01:02:26;36.03;;;33.00;;
48588;SDS011;34369;51.174;6.738;2022-11-21T01:05:01;35.40;;;32.40;;
48588;SDS011;34369;51.174;6.738;2022-11-21T01:07:33;37.80;;;34.90;;
48588;SDS011;34369;51.174;6.738;2022-11-21T01:10:08;37.13;;;34.10;;
48588;SDS011;34369;51.174;6.738;2022-11-21T01:12:43;35.83;;;32.43;;
48588;SDS011;34369;51.174;6.738;2022-11-21T01:15:18;36.43;;;32.90;;
48588;SDS011;34369;51.174;6.738;2022-11-21T01:17:50;35.50;;;32.30;;
48588;SDS011;34369;51.174;6.738;2022-11-21T01:20:29;37.00;;;34.03;;
48588;SDS011;34369;51.174;6.738;2022-11-21T01:23:01;39.63;;;36.33;;
48588;SDS011;34369;51.174;6.738;2022-11-21T01:25:36;43.30;;;39.87;;
48588;SDS011;34369;51.174;6.738;2022-11-21T01:28:08;40.93;;;37.50;;
48588;SDS011;34369;51.174;6.738;2022-11-21T01:30:40;41.77;;;38.47;;
48588;SDS011;34369;51.174;6.738;2022-11-21T01:33:13;44.97;;;41.27;;
48588;SDS011;34369;51.174;6.738;2022-11-21T01:35:48;43.77;;;40.37;;
48588;SDS011;34369;51.174;6.738;2022-11-21T01:38:20;45.13;;;41.30;;
48588;SDS011;34369;51.174;6.738;2022-11-21T01:40:54;43.17;;;39.73;;
48588;SDS011;34369;51.174;6.738;2022-11-21T01:43:26;45.57;;;41.67;;
48588;SDS011;34369;51.174;6.738;2022-11-21T01:46:00;47.80;;;43.73;;
48588;SDS011;34369;51.174;6.738;2022-11-21T01:48:41;48.33;;;44.37;;
48588;SDS011;34369;51.174;6.738;2022-11-21T01:51:21;50.03;;;45.80;;
48588;SDS011;34369;51.174;6.738;2022-11-21T01:54:00;49.27;;;44.97;;
48588;SDS011;34369;51.174;6.738;2022-11-21T01:56:43;49.13;;;44.93;;
48588;SDS011;34369;51.174;6.738;2022-11-21T01:59:21;50.13;;;45.97;;
48588;SDS011;34369;51.174;6.738;2022-11-21T02:02:02;50.63;;;46.47;;
48588;SDS011;34369;51.174;6.738;2022-11-21T02:04:37;46.25;;;42.35;;
48588;SDS011;34369;51.174;6.738;2022-11-21T02:07:12;49.37;;;45.30;;
48588;SDS011;34369;51.174;6.738;2022-11-21T02:09:47;48.27;;;44.17;;
48588;SDS011;34369;51.174;6.738;2022-11-21T02:12:29;50.37;;;46.00;;
48588;SDS011;34369;51.174;6.738;2022-11-21T02:15:09;50.37;;;46.07;;
48588;SDS011;34369;51.174;6.738;2022-11-21T02:17:43;51.67;;;47.00;;
48588;SDS011;34369;51.174;6.738;2022-11-21T02:20:15;51.07;;;46.60;;
48588;SDS011;34369;51.174;6.738;2022-11-21T02:22:51;48.83;;;44.63;;
48588;SDS011;34369;51.174;6.738;2022-11-21T02:25:34;52.07;;;47.33;;
48588;SDS011;34369;51.174;6.738;2022-11-21T02:28:08;53.17;;;48.13;;
48588;SDS011;34369;51.174;6.738;2022-11-21T02:30:45;52.00;;;47.43;;
48588;SDS011;34369;51.174;6.738;2022-11-21T02:33:17;51.40;;;46.90;;
48588;SDS011;34369;51.174;6.738;2022-11-21T02:35:56;51.60;;;47.10;;
48588;SDS011;34369;51.174;6.738;2022-11-21T02:38:31;47.10;;;43.10;;
48588;SDS011;34369;51.174;6.738;2022-11-21T02:41:10;51.13;;;46.90;;
48588;SDS011;34369;51.174;6.738;2022-11-21T02:43:49;50.00;;;45.80;;
48588;SDS011;34369;51.174;6.738;2022-11-21T02:46:25;52.13;;;47.83;;
48588;SDS011;34369;51.174;6.738;2022-11-21T02:48:58;52.17;;;47.77;;
48588;SDS011;34369;51.174;6.738;2022-11-21T02:51:31;53.63;;;48.63;;
48588;SDS011;34369;51.174;6.738;2022-11-21T02:54:07;55.40;;;50.40;;
48588;SDS011;34369;51.174;6.738;2022-11-21T02:56:41;53.87;;;48.77;;
48588;SDS011;34369;51.174;6.738;2022-11-21T02:59:13;53.33;;;48.33;;
48588;SDS011;34369;51.174;6.738;2022-11-21T03:01:46;54.83;;;49.93;;
48588;SDS011;34369;51.174;6.738;2022-11-21T03:04:19;51.93;;;47.13;;
48588;SDS011;34369;51.174;6.738;2022-11-21T03:06:51;52.73;;;47.90;;
48588;SDS011;34369;51.174;6.738;2022-11-21T03:09:24;52.53;;;47.67;;
48588;SDS011;34369;51.174;6.738;2022-11-21T03:11:59;54.97;;;50.03;;
48588;SDS011;34369;51.174;6.738;2022-11-21T03:14:36;52.23;;;47.47;;
48588;SDS011;34369;51.174;6.738;2022-11-21T03:17:08;55.73;;;50.53;;
48588;SDS011;34369;51.174;6.738;2022-11-21T03:19:41;55.47;;;50.37;;
48588;SDS011;34369;51.174;6.738;2022-11-21T03:22:14;54.87;;;49.67;;
48588;SDS011;34369;51.174;6.738;2022-11-21T03:24:47;54.80;;;49.63;;
48588;SDS011;34369;51.174;6.738;2022-11-21T03:27:21;54.33;;;49.40;;
48588;SDS011;34369;51.174;6.738;2022-11-21T03:29:54;53.90;;;48.80;;
48588;SDS011;34369;51.174;6.738;2022-11-21T03:32:27;53.00;;;48.27;;
48588;SDS011;34369;51.174;6.738;2022-11-21T03:35:01;53.57;;;48.57;;
48588;SDS011;34369;51.174;6.738;2022-11-21T03:37:34;52.37;;;47.63;;
48588;SDS011;34369;51.174;6.738;2022-11-21T03:40:07;54.83;;;49.83;;
48588;SDS011;34369;51.174;6.738;2022-11-21T03:42:43;50.83;;;46.23;;
48588;SDS011;34369;51.174;6.738;2022-11-21T03:45:16;54.67;;;50.00;;
48588;SDS011;34369;51.174;6.738;2022-11-21T03:47:54;54.03;;;49.17;;
48588;SDS011;34369;51.174;6.738;2022-11-21T03:50:27;50.97;;;46.47;;
48588;SDS011;34369;51.174;6.738;2022-11-21T03:52:59;53.17;;;48.07;;
48588;SDS011;34369;51.174;6.738;2022-11-21T03:55:32;56.20;;;50.97;;
48588;SDS011;34369;51.174;6.738;2022-11-21T03:58:07;53.27;;;48.27;;
48588;SDS011;34369;51.174;6.738;2022-11-21T04:00:40;54.30;;;49.40;;
48588;SDS011;34369;51.174;6.738;2022-11-21T04:03:12;53.33;;;48.33;;
48588;SDS011;34369;51.174;6.738;2022-11-21T04:05:51;53.60;;;48.77;;
48588;SDS011;34369;51.174;6.738;2022-11-21T04:08:25;57.03;;;51.83;;
48588;SDS011;34369;51.174;6.738;2022-11-21T04:10:58;54.20;;;49.27;;
48588;SDS011;34369;51.174;6.738;2022-11-21T04:13:32;53.63;;;48.43;;
48588;SDS011;34369;51.174;6.738;2022-11-21T04:16:05;55.23;;;50.27;;
48588;SDS011;34369;51.174;6.738;2022-11-21T04:18:37;54.93;;;50.00;;
48588;SDS011;34369;51.174;6.738;2022-11-21T04:21:10;57.30;;;51.97;;
48588;SDS011;34369;51.174;6.738;2022-11-21T04:23:43;56.03;;;50.73;;
48588;SDS011;34369;51.174;6.738;2022-11-21T04:26:18;57.03;;;51.80;;
48588;SDS011;34369;51.174;6.738;2022-11-21T04:28:54;55.00;;;49.70;;
48588;SDS011;34369;51.174;6.738;2022-11-21T04:31:28;57.50;;;52.10;;
48588;SDS011;34369;51.174;6.738;2022-11-21T04:34:00;58.50;;;53.10;;
48588;SDS011;34369;51.174;6.738;2022-11-21T04:36:33;57.17;;;51.87;;
48588;SDS011;34369;51.174;6.738;2022-11-21T04:39:06;56.47;;;51.10;;
48588;SDS011;34369;51.174;6.738;2022-11-21T04:41:39;57.17;;;50.80;;
48588;SDS011;34369;51.174;6.738;2022-11-21T04:44:13;57.47;;;51.63;;
48588;SDS011;34369;51.174;6.738;2022-11-21T04:46:45;56.77;;;51.13;;
48588;SDS011;34369;51.174;6.738;2022-11-21T04:49:17;55.87;;;50.83;;
48588;SDS011;34369;51.174;6.738;2022-11-21T04:51:50;57.93;;;52.53;;
48588;SDS011;34369;51.174;6.738;2022-11-21T04:54:22;55.20;;;49.80;;
48588;SDS011;34369;51.174;6.738;2022-11-21T04:56:55;57.93;;;52.63;;
48588;SDS011;34369;51.174;6.738;2022-11-21T04:59:29;57.83;;;52.40;;
48588;SDS011;34369;51.174;6.738;2022-11-21T05:02:05;58.27;;;52.83;;
48588;SDS011;34369;51.174;6.738;2022-11-21T05:04:38;58.83;;;53.07;;
48588;SDS011;34369;51.174;6.738;2022-11-21T05:07:11;59.27;;;53.17;;
48588;SDS011;34369;51.174;6.738;2022-11-21T05:09:45;58.97;;;53.30;;
48588;SDS011;34369;51.174;6.738;2022-11-21T05:12:18;60.20;;;53.90;;
48588;SDS011;34369;51.174;6.738;2022-11-21T05:15:10;57.53;;;51.70;;
48588;SDS011;34369;51.174;6.738;2022-11-21T05:17:48;58.17;;;52.70;;
48588;SDS011;34369;51.174;6.738;2022-11-21T05:20:20;58.83;;;53.13;;
48588;SDS011;34369;51.174;6.738;2022-11-21T05:22:52;63.13;;;57.03;;
48588;SDS011;34369;51.174;6.738;2022-11-21T05:25:25;60.43;;;54.27;;
48588;SDS011;34369;51.174;6.738;2022-11-21T05:27:57;58.83;;;52.97;;
48588;SDS011;34369;51.174;6.738;2022-11-21T05:30:31;61.53;;;55.50;;
48588;SDS011;34369;51.174;6.738;2022-11-21T05:33:04;58.40;;;52.50;;
48588;SDS011;34369;51.174;6.738;2022-11-21T05:35:37;60.47;;;54.30;;
48588;SDS011;34369;51.174;6.738;2022-11-21T05:38:10;56.60;;;51.00;;
48588;SDS011;34369;51.174;6.738;2022-11-21T05:40:43;59.43;;;53.43;;
48588;SDS011;34369;51.174;6.738;2022-11-21T05:43:16;60.07;;;54.03;;
48588;SDS011;34369;51.174;6.738;2022-11-21T05:46:07;58.37;;;52.50;;
48588;SDS011;34369;51.174;6.738;2022-11-21T05:48:40;60.50;;;54.57;;
48588;SDS011;34369;51.174;6.738;2022-11-21T05:51:14;59.67;;;53.63;;
48588;SDS011;34369;51.174;6.738;2022-11-21T05:53:50;62.60;;;56.05;;
48588;SDS011;34369;51.174;6.738;2022-11-21T05:56:23;61.70;;;55.50;;
48588;SDS011;34369;51.174;6.738;2022-11-21T05:58:56;62.77;;;56.37;;
48588;SDS011;34369;51.174;6.738;2022-11-21T06:01:31;60.47;;;54.10;;
48588;SDS011;34369;51.174;6.738;2022-11-21T06:04:21;58.73;;;53.00;;
48588;SDS011;34369;51.174;6.738;2022-11-21T06:06:54;60.57;;;54.20;;
48588;SDS011;34369;51.174;6.738;2022-11-21T06:09:27;61.13;;;54.70;;
48588;SDS011;34369;51.174;6.738;2022-11-21T06:11:59;60.20;;;54.10;;
48588;SDS011;34369;51.174;6.738;2022-11-21T06:14:32;56.60;;;50.70;;
48588;SDS011;34369;51.174;6.738;2022-11-21T06:17:06;55.20;;;49.33;;
48588;SDS011;34369;51.174;6.738;2022-11-21T06:19:39;59.50;;;53.40;;
48588;SDS011;34369;51.174;6.738;2022-11-21T06:22:12;58.13;;;51.13;;
48588;SDS011;34369;51.174;6.738;2022-11-21T06:24:45;65.70;;;54.70;;
48588;SDS011;34369;51.174;6.738;2022-11-21T06:27:20;58.20;;;52.10;;
48588;SDS011;34369;51.174;6.738;2022-11-21T06:29:55;57.33;;;51.50;;
48588;SDS011;34369;51.174;6.738;2022-11-21T06:32:29;60.97;;;54.70;;
48588;SDS011;34369;51.174;6.738;2022-11-21T06:35:08;57.53;;;51.33;;
48588;SDS011;34369;51.174;6.738;2022-11-21T06:37:40;59.37;;;53.23;;
48588;SDS011;34369;51.174;6.738;2022-11-21T06:40:13;59.47;;;53.20;;
48588;SDS011;34369;51.174;6.738;2022-11-21T06:42:47;58.97;;;53.03;;
48588;SDS011;34369;51.174;6.738;2022-11-21T06:45:20;58.13;;;52.03;;
48588;SDS011;34369;51.174;6.738;2022-11-21T06:47:54;59.50;;;53.50;;
48588;SDS011;34369;51.174;6.738;2022-11-21T06:50:26;61.27;;;55.10;;
48588;SDS011;34369;51.174;6.738;2022-11-21T06:53:08;58.77;;;52.47;;
48588;SDS011;34369;51.174;6.738;2022-11-21T06:55:44;68.60;;;55.00;;
48588;SDS011;34369;51.174;6.738;2022-11-21T06:58:16;58.10;;;52.50;;
48588;SDS011;34369;51.174;6.738;2022-11-21T07:00:49;56.67;;;51.20;;
48588;SDS011;34369;51.174;6.738;2022-11-21T07:03:22;57.17;;;51.03;;
48588;SDS011;34369;51.174;6.738;2022-11-21T07:05:55;56.40;;;50.80;;
48588;SDS011;34369;51.174;6.738;2022-11-21T07:08:33;54.97;;;49.80;;
48588;SDS011;34369;51.174;6.738;2022-11-21T07:11:07;56.58;;;51.03;;
48588;SDS011;34369;51.174;6.738;2022-11-21T07:13:41;54.90;;;49.60;;
48588;SDS011;34369;51.174;6.738;2022-11-21T07:16:13;55.67;;;49.97;;
48588;SDS011;34369;51.174;6.738;2022-11-21T07:18:47;56.83;;;51.17;;
48588;SDS011;34369;51.174;6.738;2022-11-21T07:21:23;55.13;;;49.72;;
48588;SDS011;34369;51.174;6.738;2022-11-21T07:23:56;54.53;;;49.47;;
48588;SDS011;34369;51.174;6.738;2022-11-21T07:26:31;51.47;;;46.50;;
48588;SDS011;34369;51.174;6.738;2022-11-21T07:29:03;53.37;;;48.33;;
48588;SDS011;34369;51.174;6.738;2022-11-21T07:31:36;52.37;;;47.33;;
48588;SDS011;34369;51.174;6.738;2022-11-21T07:34:11;51.17;;;46.47;;
48588;SDS011;34369;51.174;6.738;2022-11-21T07:36:43;51.10;;;46.53;;
48588;SDS011;34369;51.174;6.738;2022-11-21T07:39:16;49.40;;;45.00;;
48588;SDS011;34369;51.174;6.738;2022-11-21T07:41:49;47.57;;;43.50;;
48588;SDS011;34369;51.174;6.738;2022-11-21T07:44:22;46.60;;;42.57;;
48588;SDS011;34369;51.174;6.738;2022-11-21T07:46:55;48.40;;;44.53;;
48588;SDS011;34369;51.174;6.738;2022-11-21T07:49:29;45.27;;;41.67;;
48588;SDS011;34369;51.174;6.738;2022-11-21T07:52:02;45.07;;;41.67;;
48588;SDS011;34369;51.174;6.738;2022-11-21T07:54:35;41.60;;;38.57;;
48588;SDS011;34369;51.174;6.738;2022-11-21T07:57:08;44.37;;;40.80;;
48588;SDS011;34369;51.174;6.738;2022-11-21T07:59:41;44.13;;;40.93;;
48588;SDS011;34369;51.174;6.738;2022-11-21T08:02:16;42.60;;;39.27;;
48588;SDS011;34369;51.174;6.738;2022-11-21T08:04:51;42.27;;;38.80;;
48588;SDS011;34369;51.174;6.738;2022-11-21T08:07:24;42.40;;;39.20;;
48588;SDS011;34369;51.174;6.738;2022-11-21T08:09:57;42.03;;;38.80;;
48588;SDS011;34369;51.174;6.738;2022-11-21T08:12:30;41.20;;;38.20;;
48588;SDS011;34369;51.174;6.738;2022-11-21T08:15:04;40.37;;;37.10;;
48588;SDS011;34369;51.174;6.738;2022-11-21T08:17:38;40.60;;;37.70;;
48588;SDS011;34369;51.174;6.738;2022-11-21T08:20:12;39.63;;;36.53;;
48588;SDS011;34369;51.174;6.738;2022-11-21T08:22:46;36.87;;;34.17;;
48588;SDS011;34369;51.174;6.738;2022-11-21T08:28:03;39.47;;;36.67;;
48588;SDS011;34369;51.174;6.738;2022-11-21T08:30:37;38.30;;;35.37;;
48588;SDS011;34369;51.174;6.738;2022-11-21T08:33:11;39.00;;;36.20;;
48588;SDS011;34369;51.174;6.738;2022-11-21T08:35:45;36.73;;;34.13;;
48588;SDS011;34369;51.174;6.738;2022-11-21T08:38:18;37.17;;;34.50;;
48588;SDS011;34369;51.174;6.738;2022-11-21T08:40:51;37.20;;;34.60;;
48588;SDS011;34369;51.174;6.738;2022-11-21T08:43:38;38.05;;;35.25;;
48588;SDS011;34369;51.174;6.738;2022-11-21T08:46:10;38.07;;;35.07;;
48588;SDS011;34369;51.174;6.738;2022-11-21T08:48:43;36.23;;;33.53;;
48588;SDS011;34369;51.174;6.738;2022-11-21T08:51:18;37.50;;;35.00;;
48588;SDS011;34369;51.174;6.738;2022-11-21T08:53:50;37.67;;;34.87;;
48588;SDS011;34369;51.174;6.738;2022-11-21T08:56:23;37.83;;;35.03;;
48588;SDS011;34369;51.174;6.738;2022-11-21T08:58:56;38.13;;;35.17;;
48588;SDS011;34369;51.174;6.738;2022-11-21T09:01:30;39.77;;;36.70;;
48588;SDS011;34369;51.174;6.738;2022-11-21T09:04:03;38.97;;;35.77;;
48588;SDS011;34369;51.174;6.738;2022-11-21T09:06:37;37.53;;;34.63;;
48588;SDS011;34369;51.174;6.738;2022-11-21T09:09:10;38.50;;;35.50;;
48588;SDS011;34369;51.174;6.738;2022-11-21T09:11:43;37.00;;;34.23;;
48588;SDS011;34369;51.174;6.738;2022-11-21T09:14:17;40.63;;;37.53;;
48588;SDS011;34369;51.174;6.738;2022-11-21T09:17:09;38.00;;;35.17;;
48588;SDS011;34369;51.174;6.738;2022-11-21T09:20:01;37.83;;;34.90;;
48588;SDS011;34369;51.174;6.738;2022-11-21T09:22:35;38.83;;;35.73;;
48588;SDS011;34369;51.174;6.738;2022-11-21T09:25:11;39.50;;;36.60;;
48588;SDS011;34369;51.174;6.738;2022-11-21T09:27:44;38.10;;;35.20;;
48588;SDS011;34369;51.174;6.738;2022-11-21T09:30:19;38.30;;;35.03;;
48588;SDS011;34369;51.174;6.738;2022-11-21T09:32:52;37.97;;;34.87;;
48588;SDS011;34369;51.174;6.738;2022-11-21T09:35:25;36.43;;;33.80;;
48588;SDS011;34369;51.174;6.738;2022-11-21T09:37:59;37.83;;;34.53;;
48588;SDS011;34369;51.174;6.738;2022-11-21T09:40:32;36.83;;;33.83;;
48588;SDS011;34369;51.174;6.738;2022-11-21T09:43:12;36.37;;;33.50;;
48588;SDS011;34369;51.174;6.738;2022-11-21T09:46:08;38.40;;;35.50;;
48588;SDS011;34369;51.174;6.738;2022-11-21T09:48:47;36.20;;;33.40;;
48588;SDS011;34369;51.174;6.738;2022-11-21T09:51:28;37.43;;;34.53;;
48588;SDS011;34369;51.174;6.738;2022-11-21T09:54:04;37.03;;;34.23;;
48588;SDS011;34369;51.174;6.738;2022-11-21T09:56:46;36.17;;;33.47;;
48588;SDS011;34369;51.174;6.738;2022-11-21T09:59:24;35.93;;;33.03;;
48588;SDS011;34369;51.174;6.738;2022-11-21T10:02:07;37.07;;;34.23;;
48588;SDS011;34369;51.174;6.738;2022-11-21T10:04:47;37.00;;;34.13;;
48588;SDS011;34369;51.174;6.738;2022-11-21T10:07:23;37.20;;;34.17;;
48588;SDS011;34369;51.174;6.738;2022-11-21T10:10:05;36.80;;;34.10;;
48588;SDS011;34369;51.174;6.738;2022-11-21T10:13:06;36.23;;;33.23;;
48588;SDS011;34369;51.174;6.738;2022-11-21T10:15:55;37.07;;;34.27;;
48588;SDS011;34369;51.174;6.738;2022-11-21T10:24:54;36.77;;;33.87;;
48588;SDS011;34369;51.174;6.738;2022-11-21T10:27:34;34.27;;;31.43;;
48588;SDS011;34369;51.174;6.738;2022-11-21T10:30:14;38.43;;;35.13;;
48588;SDS011;34369;51.174;6.738;2022-11-21T10:32:49;34.83;;;32.20;;
48588;SDS011;34369;51.174;6.738;2022-11-21T10:35:28;36.37;;;33.40;;
48588;SDS011;34369;51.174;6.738;2022-11-21T10:38:12;35.10;;;32.50;;
48588;SDS011;34369;51.174;6.738;2022-11-21T10:40:53;35.33;;;32.43;;
48588;SDS011;34369;51.174;6.738;2022-11-21T10:43:34;35.33;;;32.50;;
48588;SDS011;34369;51.174;6.738;2022-11-21T10:46:32;36.07;;;33.40;;
48588;SDS011;34369;51.174;6.738;2022-11-21T10:49:09;34.53;;;31.97;;
48588;SDS011;34369;51.174;6.738;2022-11-21T10:51:44;35.20;;;32.57;;
48588;SDS011;34369;51.174;6.738;2022-11-21T10:54:22;34.50;;;31.93;;
48588;SDS011;34369;51.174;6.738;2022-11-21T10:57:05;34.03;;;31.37;;
48588;SDS011;34369;51.174;6.738;2022-11-21T10:59:53;34.53;;;31.83;;
48588;SDS011;34369;51.174;6.738;2022-11-21T11:02:31;32.70;;;30.33;;
48588;SDS011;34369;51.174;6.738;2022-11-21T11:07:57;33.33;;;30.83;;
48588;SDS011;34369;51.174;6.738;2022-11-21T11:10:34;35.13;;;32.30;;
48588;SDS011;34369;51.174;6.738;2022-11-21T11:13:11;34.10;;;31.67;;
48588;SDS011;34369;51.174;6.738;2022-11-21T11:16:05;32.33;;;29.90;;
48588;SDS011;34369;51.174;6.738;2022-11-21T11:18:50;32.53;;;30.13;;
48588;SDS011;34369;51.174;6.738;2022-11-21T11:21:40;36.13;;;33.53;;
48588;SDS011;34369;51.174;6.738;2022-11-21T11:24:19;34.30;;;31.80;;
48588;SDS011;34369;51.174;6.738;2022-11-21T11:26:56;33.30;;;30.90;;
48588;SDS011;34369;51.174;6.738;2022-11-21T11:29:32;33.88;;;31.52;;
48588;SDS011;34369;51.174;6.738;2022-11-21T11:32:21;34.70;;;31.90;;
48588;SDS011;34369;51.174;6.738;2022-11-21T11:34:56;34.63;;;32.03;;
48588;SDS011;34369;51.174;6.738;2022-11-21T11:37:33;34.03;;;31.38;;
48588;SDS011;34369;51.174;6.738;2022-11-21T11:40:14;31.80;;;29.40;;
48588;SDS011;34369;51.174;6.738;2022-11-21T11:42:55;32.83;;;30.33;;
48588;SDS011;34369;51.174;6.738;2022-11-21T11:46:12;31.93;;;29.53;;
48588;SDS011;34369;51.174;6.738;2022-11-21T11:49:20;31.95;;;29.65;;
48588;SDS011;34369;51.174;6.738;2022-11-21T11:52:27;31.47;;;29.27;;
48588;SDS011;34369;51.174;6.738;2022-11-21T11:55:06;32.03;;;29.53;;
48588;SDS011;34369;51.174;6.738;2022-11-21T11:57:47;32.63;;;29.83;;
48588;SDS011;34369;51.174;6.738;2022-11-21T12:00:29;31.90;;;29.60;;
48588;SDS011;34369;51.174;6.738;2022-11-21T12:03:13;30.87;;;28.67;;
48588;SDS011;34369;51.174;6.738;2022-11-21T12:05:53;31.87;;;29.67;;
48588;SDS011;34369;51.174;6.738;2022-11-21T12:08:36;31.23;;;28.93;;
48588;SDS011;34369;51.174;6.738;2022-11-21T12:11:24;32.07;;;29.60;;
48588;SDS011;34369;51.174;6.738;2022-11-21T12:17:47;32.30;;;29.90;;
48588;SDS011;34369;51.174;6.738;2022-11-21T12:20:26;31.53;;;29.30;;
48588;SDS011;34369;51.174;6.738;2022-11-21T12:23:10;32.53;;;30.23;;
48588;SDS011;34369;51.174;6.738;2022-11-21T12:25:47;32.00;;;29.70;;
48588;SDS011;34369;51.174;6.738;2022-11-21T12:28:34;32.10;;;29.70;;
48588;SDS011;34369;51.174;6.738;2022-11-21T12:31:18;33.13;;;30.33;;
48588;SDS011;34369;51.174;6.738;2022-11-21T12:34:02;30.77;;;28.50;;
48588;SDS011;34369;51.174;6.738;2022-11-21T12:36:52;31.30;;;29.10;;
48588;SDS011;34369;51.174;6.738;2022-11-21T12:39:37;31.17;;;28.80;;
48588;SDS011;34369;51.174;6.738;2022-11-21T12:42:35;31.30;;;29.03;;
48588;SDS011;34369;51.174;6.738;2022-11-21T12:45:25;30.43;;;28.23;;
48588;SDS011;34369;51.174;6.738;2022-11-21T12:48:08;29.33;;;27.33;;
48588;SDS011;34369;51.174;6.738;2022-11-21T12:51:22;31.03;;;28.73;;
48588;SDS011;34369;51.174;6.738;2022-11-21T12:54:39;29.63;;;27.43;;
48588;SDS011;34369;51.174;6.738;2022-11-21T12:57:42;30.83;;;28.67;;
48588;SDS011;34369;51.174;6.738;2022-11-21T13:00:31;31.67;;;29.50;;
48588;SDS011;34369;51.174;6.738;2022-11-21T13:03:44;30.27;;;28.27;;
48588;SDS011;34369;51.174;6.738;2022-11-21T13:06:23;30.07;;;27.90;;
48588;SDS011;34369;51.174;6.738;2022-11-21T13:08:58;30.17;;;28.05;;
48588;SDS011;34369;51.174;6.738;2022-11-21T13:11:38;30.27;;;28.20;;
48588;SDS011;34369;51.174;6.738;2022-11-21T13:14:35;29.40;;;27.37;;
48588;SDS011;34369;51.174;6.738;2022-11-21T13:17:19;30.50;;;28.23;;
48588;SDS011;34369;51.174;6.738;2022-11-21T13:20:05;30.00;;;27.93;;
48588;SDS011;34369;51.174;6.738;2022-11-21T13:22:50;30.97;;;28.53;;
48588;SDS011;34369;51.174;6.738;2022-11-21T13:25:35;28.97;;;26.97;;
48588;SDS011;34369;51.174;6.738;2022-11-21T13:28:35;31.80;;;29.63;;
48588;SDS011;34369;51.174;6.738;2022-11-21T13:34:02;30.07;;;28.00;;
48588;SDS011;34369;51.174;6.738;2022-11-21T13:36:36;31.00;;;28.90;;
48588;SDS011;34369;51.174;6.738;2022-11-21T13:42:09;30.30;;;28.27;;
48588;SDS011;34369;51.174;6.738;2022-11-21T13:48:16;31.47;;;29.13;;
48588;SDS011;34369;51.174;6.738;2022-11-21T13:51:15;31.10;;;29.13;;
48588;SDS011;34369;51.174;6.738;2022-11-21T13:54:31;30.50;;;28.50;;
48588;SDS011;34369;51.174;6.738;2022-11-21T13:57:50;32.50;;;30.30;;
48588;SDS011;34369;51.174;6.738;2022-11-21T14:06:48;31.80;;;29.60;;
48588;SDS011;34369;51.174;6.738;2022-11-21T14:09:24;31.17;;;28.97;;
48588;SDS011;34369;51.174;6.738;2022-11-21T14:11:58;31.27;;;29.23;;
48588;SDS011;34369;51.174;6.738;2022-11-21T14:14:35;31.30;;;29.10;;
48588;SDS011;34369;51.174;6.738;2022-11-21T14:17:21;30.77;;;28.73;;
48588;SDS011;34369;51.174;6.738;2022-11-21T14:20:14;29.70;;;27.70;;
48588;SDS011;34369;51.174;6.738;2022-11-21T14:23:00;32.10;;;30.07;;
48588;SDS011;34369;51.174;6.738;2022-11-21T14:25:36;31.37;;;29.27;;
48588;SDS011;34369;51.174;6.738;2022-11-21T14:28:15;30.13;;;28.10;;
48588;SDS011;34369;51.174;6.738;2022-11-21T14:30:57;30.90;;;28.80;;
48588;SDS011;34369;51.174;6.738;2022-11-21T14:33:32;30.27;;;28.13;;
48588;SDS011;34369;51.174;6.738;2022-11-21T14:36:07;31.73;;;29.63;;
48588;SDS011;34369;51.174;6.738;2022-11-21T14:38:46;32.67;;;30.50;;
48588;SDS011;34369;51.174;6.738;2022-11-21T14:47:01;31.33;;;29.13;;
48588;SDS011;34369;51.174;6.738;2022-11-21T14:49:51;31.43;;;29.33;;
48588;SDS011;34369;51.174;6.738;2022-11-21T14:52:34;31.60;;;29.30;;
48588;SDS011;34369;51.174;6.738;2022-11-21T14:55:18;32.47;;;30.13;;
48588;SDS011;34369;51.174;6.738;2022-11-21T14:57:55;33.67;;;31.03;;
48588;SDS011;34369;51.174;6.738;2022-11-21T15:00:32;33.57;;;31.07;;
48588;SDS011;34369;51.174;6.738;2022-11-21T15:03:14;31.87;;;29.67;;
48588;SDS011;34369;51.174;6.738;2022-11-21T15:05:58;33.33;;;30.87;;
48588;SDS011;34369;51.174;6.738;2022-11-21T15:08:34;33.10;;;30.70;;
48588;SDS011;34369;51.174;6.738;2022-11-21T15:11:09;31.88;;;29.73;;
48588;SDS011;34369;51.174;6.738;2022-11-21T15:13:43;33.40;;;31.20;;
48588;SDS011;34369;51.174;6.738;2022-11-21T15:16:19;33.33;;;31.02;;
48588;SDS011;34369;51.174;6.738;2022-11-21T15:18:54;33.77;;;31.47;;
48588;SDS011;34369;51.174;6.738;2022-11-21T15:21:30;32.67;;;30.53;;
48588;SDS011;34369;51.174;6.738;2022-11-21T15:24:14;33.30;;;30.73;;
48588;SDS011;34369;51.174;6.738;2022-11-21T15:26:48;31.97;;;29.67;;
48588;SDS011;34369;51.174;6.738;2022-11-21T15:29:21;33.60;;;31.23;;
48588;SDS011;34369;51.174;6.738;2022-11-21T15:32:06;34.07;;;31.53;;
48588;SDS011;34369;51.174;6.738;2022-11-21T15:34:41;33.37;;;30.97;;
48588;SDS011;34369;51.174;6.738;2022-11-21T15:37:18;33.43;;;31.23;;
48588;SDS011;34369;51.174;6.738;2022-11-21T15:39:54;34.93;;;32.43;;
48588;SDS011;34369;51.174;6.738;2022-11-21T15:42:37;34.73;;;32.13;;
48588;SDS011;34369;51.174;6.738;2022-11-21T15:45:23;35.07;;;32.50;;
48588;SDS011;34369;51.174;6.738;2022-11-21T15:47:56;33.53;;;31.23;;
48588;SDS011;34369;51.174;6.738;2022-11-21T15:50:29;35.20;;;32.73;;
48588;SDS011;34369;51.174;6.738;2022-11-21T15:53:15;33.93;;;31.40;;
48588;SDS011;34369;51.174;6.738;2022-11-21T15:55:48;35.87;;;33.17;;
48588;SDS011;34369;51.174;6.738;2022-11-21T15:58:26;35.03;;;32.53;;